Language selection

My Weather Profile Weather Topics  | 

West Coast Vancouver Island South: Past 24 Hour Conditions

 

Georgia Strait - 46303

09:00 AM PDT 07 May 2021Buoy position: 49.03N 123.43W
Disclaimer

This table is a summary of hourly weather conditions for the past 24 hours.
Please note that these observations might not always be representative of weather conditions over their associated marine area.

Date / Time
(PDT)
Wind(knots) Wave height(m) Wave period(s) Pressure(kPa) Air tempC) Water tempC)
07 May 2021
9:00 WSW 4 gust 5 0.2 3.3 102.1 10 11
8:00 SW 6 gust 8 0.2 2.7 102.1 9 11
7:00 SW 9 gust 10 0.2 2.5 102.0 9 10
6:00 SSW 9 gust 10 0.3 2.6 102.0 9 10
5:00 S 12 gust 15 0.2 3.0 101.9 9 10
4:00 SSE 10 gust 13 0.2 3.0 101.9 10 10
3:00 S 8 gust 13 0.3 3.1 101.9 10 10
2:00 S 9 gust 11 0.3 3.0 101.8 10 10
1:00 SSE 12 gust 15 0.3 2.8 101.8 10 10
0:00 SSW 12 gust 15 0.3 2.5 101.8 11 11
06 May 2021
23:00 SSW 8 gust 11 0.4 2.4 101.7 11 11
22:00 SW 10 gust 12 0.4 2.4 101.7 11 11
21:00 SW 15 gust 19 0.4 2.3 101.6 11 12
20:00 SW 19 gust 23 0.6 2.6 101.5 12 12
19:00 SSW 17 gust 21 0.5 2.6 101.4 13 12
18:00 SW 17 gust 21 N/A N/A 101.4 14 12
17:00 S 8 gust 12 0.1 2.7 101.3 15 12
16:00 ESE 9 gust 11 0.2 2.7 101.3 14 12
15:00 ESE 8 gust 10 0.2 2.5 101.2 14 11
14:00 ESE 9 gust 10 0.2 2.2 101.2 13 11
13:00 ENE 13 gust 15 0.2 2.1 101.1 12 11
12:00 ENE 12 gust 16 0.3 2.2 101.0 12 11
11:00 E 12 gust 15 0.2 2.1 101.0 12 12
10:00 E 13 gust 15 0.1 2.5 100.9 12 11
9:00 ENE 10 gust 12 0.1 2.3 100.9 12 11

Zoom-in to make a selection

Map of Pacific - South Coast marine weather areas South Nomad - 46036 Sentry Shoal - 46131 South Brooks - 46132 Halibut Bank - 46146 South Moresby - 46147 South Hecate Strait - 46185 West Sea Otter - 46204 La Perouse Bank - 46206 East Dellwood - 46207 Georgia Strait - 46303 English Bay - 46304 Discovery Island Esquimalt Harbour Kelp Reefs Malahat Race Rocks Lightstation Saturna Island Sheringham Point University of Victoria Victoria Gonzales Victoria Int'l Airport Ballenas Islands Campbell River Airport Comox Airport Entrance Island Fanny Island Nanaimo Airport Port Hardy Airport Sisters Islets Estevan Point Port Alberni Sartine Island Solander Island Tofino Airport Grief Point Howe Sound - Pam Rocks Powell River Airport Sechelt Squamish Airport Cape St.James Bella Bella Airport Bella Coola Airport Cathedral Point Herbert Island Point Atkinson Sand Heads Lightstation Tsawwassen Ferry Terminal Vancouver Int'l Airport Vancouver Harbour West Vancouver
Legend:
buoy Buoy
land station Land Station

Pacific - South Coast Area

Another Region

What we are doing

Date modified: